Nearby METAR Reports

 

KIAG - Niagara Falls, New York, USA
Distance from station: W 12mi, 20km
Updated: 04/20/2018 1:53pm
Clear
Clear
 Wind from NW
Wind: NW 10 mph , 17 km/h
Temperature: 43°F , 6°C
Wind Chill: 37°F , 3°C
Dew Point: 25°F , -4°C
Humidity: 49%
Barometer: 1029.1 hPa
Clouds: Clear
Visibility: 10 miles , 16 km
2018/04/20 17:53 KIAG 201753Z 31009KT 10SM CLR 06/M04 A3039 RMK AO2 SLP303 T00611044 10061 20011 50003
KBUF - Buffalo/Cheektow, New York, USA
Distance from station: S 13mi, 21km
Updated: 04/20/2018 1:54pm
Few Clouds
Few Clouds
 Wind from NW
Wind: NW 12 mph , 19 km/h
Temperature: 41°F , 5°C
Wind Chill: 34°F , 1°C
Dew Point: 27°F , -3°C
Humidity: 57%
Barometer: 1028.8 hPa
Clouds: Few Clouds
Visibility: 10 miles , 16 km
Cloud details: Few Clouds 3900 ft
2018/04/20 17:54 KBUF 201754Z 31010KT 10SM FEW039 05/M03 A3038 RMK AO2 SLP296 T00501033 10050 20000 50004
 
KROC - Rochester, New York, USA
Distance from station: E 51mi, 82km
Updated: 04/20/2018 1:54pm
Few Clouds
Few Clouds
 Wind from NNW
Wind: NNW 17 mph , 28 km/h, Gust: 22 mph , 35 km/h
Temperature: 43°F , 6°C
Wind Chill: 35°F , 2°C
Dew Point: 25°F , -4°C
Humidity: 49%
Barometer: 1027.8 hPa
Clouds: Few Clouds
Visibility: 10 miles , 16 km
Cloud details: Few Clouds 4100 ft
2018/04/20 17:54 KROC 201754Z 34015G19KT 10SM FEW041 06/M04 A3035 RMK AO2 SLP287 T00561039 10061 20006 51006
CYSN - St. Catharines A, Ontario, Canada
Distance from station: WNW 25mi, 40km
Updated: 04/20/2018 2:00pm
Few Clouds
Few Clouds
 Wind from NW
Wind: NW 12 mph , 19 km/h
Temperature: 41°F , 5°C
Wind Chill: 34°F , 1°C
Dew Point: 27°F , -3°C
Humidity: 57%
Barometer: 1029.5 hPa
Clouds: Few Clouds
Visibility: 15 miles , 24 km
Cloud details: Few Clouds 3000 ft
2018/04/20 18:00 CYSN 201800Z 32010KT 15SM FEW030 05/M03 A3040 RMK SC1 SLP299
 
KOLE - Olean, New York, USA
Distance from station: SSE 63mi, 102km
Updated: 04/20/2018 2:15pm
Overcast
Overcast
 Wind from NW
Wind: NW 8 mph , 13 km/h, Gust: 18 mph , 30 km/h
Temperature: 32°F , 0°C
Wind Chill: 25°F , -4°C
Dew Point: 21°F , -6°C
Humidity: 64%
Barometer: 1026.8 hPa
Clouds: Overcast
Visibility: 10 miles , 16 km
Cloud details: Overcast 2500 ft
2018/04/20 18:15 KOLE 201815Z AUTO 32007G16KT 10SM OVC025 00/M06 A3032 RMK AO2
KJHW - Jamestown, New York, USA
Distance from station: SSW 74mi, 119km
Updated: 04/20/2018 1:56pm
Clear
Clear
 Wind from NNW
Wind: NNW 12 mph , 19 km/h, Gust: 18 mph , 30 km/h
Temperature: 36°F , 2°C
Wind Chill: 28°F , -2°C
Dew Point: 21°F , -6°C
Humidity: 56%
Barometer: 1028.1 hPa
Clouds: Clear
Visibility: 10 miles , 16 km
2018/04/20 17:56 KJHW 201756Z AUTO 34010G16KT 10SM CLR 02/M06 A3036 RMK AO2 SLP306 6//// T00171056 10017 21011 51007 FZRANO
 
CWWZ - Port Weller (mar, Ontario, Canada
Distance from station: WNW 28mi, 45km
Updated: 04/20/2018 2:00pm

 Wind from W
Wind: W 7 mph , 11 km/h
Temperature: 43°F , 6°C
Wind Chill: 39°F , 4°C
Dew Point: 28°F , -2°C
Humidity: 57%
2018/04/20 18:00 CWWZ 201800Z AUTO 28006KT 06/M02 RMK AO1 SLP301 T00571019 58000
CWPC - Port Colborne(Au, Ontario, Canada
Distance from station: WSW 33mi, 53km
Updated: 04/20/2018 2:00pm

 Wind from NNW
Wind: NNW 12 mph , 19 km/h, Gust: 17 mph , 28 km/h
Temperature: 39°F , 4°C
Wind Chill: 32°F , 0°C
Dew Point: 21°F , -6°C
Humidity: 48%
2018/04/20 18:00 CWPC 201800Z AUTO 34010G15KT 04/M06 RMK AO1 SLP299 T00391063 51000
 
CXVN - Vineland (au8), Ontario, Canada
Distance from station: W 36mi, 58km
Updated: 04/20/2018 2:00pm

 Wind from NW
Wind: NW 5 mph , 7 km/h
Temperature: 41°F , 5°C
Wind Chill: 38°F , 3°C
Dew Point: 25°F , -4°C
Humidity: 53%
2018/04/20 18:00 CXVN 201800Z AUTO 32004KT 05/M04 RMK AO1 SLP295 T00521038 50000
CYTZ - Toronto Il Vor, Ontario, Canada
Distance from station: NW 50mi, 81km
Updated: 04/20/2018 2:00pm
Clear
Clear
 Wind from N
Wind: N 7 mph , 11 km/h, Gust: 18 mph , 30 km/h
Temperature: 43°F , 6°C
Wind Chill: 39°F , 4°C
Dew Point: 23°F , -5°C
Humidity: 46%
Barometer: 1029.1 hPa
Clouds: Clear
Visibility: 9 miles , 14 km
2018/04/20 18:00 CYTZ 201800Z AUTO 35006G16KT 260V020 9SM CLR 06/M05 A3039 RMK SLP296
 
CXTO - Toronto City, Ontario, Canada
Distance from station: NW 52mi, 84km
Updated: 04/20/2018 2:00pm

 
Temperature: 45°F , 7°C
Dew Point: 23°F , -5°C
Humidity: 42%
2018/04/20 18:00 CXTO 201800Z AUTO 07/M05 RMK AO1 SLP294 T00691050 58000
KDKK - Dunkirk, New York, USA
Distance from station: SW 52mi, 84km
Updated: 04/20/2018 1:53pm
Clear
Clear
 Wind from W
Wind: W 10 mph , 17 km/h
Temperature: 39°F , 4°C
Wind Chill: 32°F , 0°C
Dew Point: 25°F , -4°C
Humidity: 56%
Barometer: 1030.1 hPa
Clouds: Clear
Visibility: 10 miles , 16 km
2018/04/20 17:53 KDKK 201753Z AUTO 27009KT 10SM CLR 04/M04 A3042 RMK AO2 SLP307 T00391044 10039 20006 51002
 
CYOO - Oshawa, Ontario, Canada
Distance from station: N 56mi, 90km
Updated: 04/20/2018 2:00pm
Clear
Clear
 Wind from N
Wind: N 17 mph , 28 km/h, Gust: 23 mph , 37 km/h
Temperature: 43°F , 6°C
Wind Chill: 35°F , 2°C
Dew Point: 23°F , -5°C
Humidity: 46%
Barometer: 1028.4 hPa
Clouds: Clear
Visibility: 9 miles , 14 km
2018/04/20 18:00 CYOO 201800Z AUTO 35015G20KT 290V020 9SM CLR 06/M05 A3037 RMK SLP290
CWWB - Burlington Piers, Ontario, Canada
Distance from station: WNW 56mi, 91km
Updated: 04/20/2018 2:00pm

 
Temperature: 39°F , 4°C
Dew Point: 21°F , -6°C
Humidity: 48%
2018/04/20 18:00 CWWB 201800Z AUTO 04/M06 RMK AO1 SLP297 T00401055 58000
 
CYYZ - Toronto/Pearson, Ontario, Canada
Distance from station: NW 60mi, 96km
Updated: 04/20/2018 2:00pm
Few Clouds
Few Clouds
 Wind from NNW
Wind: NNW 16 mph , 26 km/h
Temperature: 43°F , 6°C
Wind Chill: 35°F , 2°C
Dew Point: 25°F , -4°C
Humidity: 49%
Barometer: 1028.8 hPa
Clouds: Few Clouds
Visibility: 15 miles , 24 km
Cloud details: Few Clouds 3000 ft
2018/04/20 18:00 CYYZ 201800Z 34014KT 290V020 15SM FEW030 06/M04 A3038 RMK CU1 SLP297
CYKZ - Toronto Buttonvi, Ontario, Canada
Distance from station: NW 62mi, 99km
Updated: 04/20/2018 2:00pm
Few Clouds
Few Clouds
 Wind from NW
Wind: NW 8 mph , 13 km/h
Temperature: 41°F , 5°C
Wind Chill: 36°F , 2°C
Dew Point: 25°F , -4°C
Humidity: 53%
Barometer: 1028.8 hPa
Clouds: Few Clouds
Visibility: 15 miles , 24 km
Cloud details: Few Clouds 4000 ft
Few Clouds 24000 ft
2018/04/20 18:00 CYKZ 201800Z 32007KT 280V360 15SM FEW040 FEW240 05/M04 A3038 RMK CF1CI1 CF TR CI TR SLP296
 
CXHM - Hamilton Rbg Cs, Ontario, Canada
Distance from station: W 62mi, 100km
Updated: 04/20/2018 2:00pm

 Wind from NNW
Wind: NNW 7 mph , 11 km/h
Temperature: 46°F , 8°C
Wind Chill: 42°F , 6°C
Dew Point: 28°F , -2°C
Humidity: 50%
2018/04/20 18:00 CXHM 201800Z AUTO 34006KT 08/M02 RMK AO1 SLP294 T00761015 58000
KDSV - Dansville, New York, USA
Distance from station: SE 62mi, 100km
Updated: 04/20/2018 1:54pm
Overcast
Overcast
 Wind from WNW
Wind: WNW 12 mph , 19 km/h, Gust: 23 mph , 37 km/h
Temperature: 41°F , 5°C
Wind Chill: 34°F , 1°C
Dew Point: 23°F , -5°C
Humidity: 49%
Barometer: 1027.8 hPa
Clouds: Overcast
Visibility: 10 miles , 16 km
Cloud details: Overcast 4000 ft
2018/04/20 17:54 KDSV 201754Z AUTO 30010G20KT 10SM OVC040 05/M05 A3035 RMK AO2 SLP292 T00501050 10056 20000 51002
 
CYHM - Hamilton Airport, Ontario, Canada
Distance from station: W 63mi, 101km
Updated: 04/20/2018 2:00pm
Few Clouds
Few Clouds
 Wind from NW
Wind: NW 13 mph , 20 km/h
Temperature: 43°F , 6°C
Wind Chill: 36°F , 2°C
Dew Point: 27°F , -3°C
Humidity: 53%
Barometer: 1028.8 hPa
Clouds: Few Clouds
Visibility: 15 miles , 24 km
Cloud details: Few Clouds 3800 ft
2018/04/20 18:00 CYHM 201800Z 32011KT 15SM FEW038 06/M03 A3038 RMK CU1 CU TR SLP300
CWNC - Cobourg (mars), Ontario, Canada
Distance from station: NNE 63mi, 102km
Updated: 04/20/2018 2:00pm

 Wind from NNW
Wind: NNW 7 mph , 11 km/h
Temperature: 45°F , 7°C
Wind Chill: 41°F , 5°C
Dew Point: 21°F , -6°C
Humidity: 39%
2018/04/20 18:00 CWNC 201800Z AUTO 33006KT 07/M06 RMK AO1 SLP271 T00721058 50000